sensor_id;sensor_type;location;lat;lon;timestamp;pressure;altitude;pressure_sealevel;temperature;humidity
58785;BME280;44557;51.862;19.378;2023-07-31T00:01:20;98627.11;;;19.53;85.86
58785;BME280;44557;51.862;19.378;2023-07-31T00:03:21;98628.77;;;19.52;85.91
58785;BME280;44557;51.862;19.378;2023-07-31T00:05:23;98627.60;;;19.56;85.82
58785;BME280;44557;51.862;19.378;2023-07-31T00:07:25;98626.58;;;19.52;86.06
58785;BME280;44557;51.862;19.378;2023-07-31T00:09:27;98626.46;;;19.53;86.19
58785;BME280;44557;51.862;19.378;2023-07-31T00:11:36;98631.40;;;19.54;86.32
58785;BME280;44557;51.862;19.378;2023-07-31T00:13:39;98630.50;;;19.45;86.69
58785;BME280;44557;51.862;19.378;2023-07-31T00:15:41;98636.52;;;19.43;87.03
58785;BME280;44557;51.862;19.378;2023-07-31T00:17:43;98632.69;;;19.47;86.75
58785;BME280;44557;51.862;19.378;2023-07-31T00:19:49;98637.16;;;19.48;87.03
58785;BME280;44557;51.862;19.378;2023-07-31T00:21:53;98636.43;;;19.48;87.07
58785;BME280;44557;51.862;19.378;2023-07-31T00:23:55;98634.92;;;19.48;86.97
58785;BME280;44557;51.862;19.378;2023-07-31T00:25:57;98636.70;;;19.41;87.64
58785;BME280;44557;51.862;19.378;2023-07-31T00:27:59;98636.44;;;19.37;87.85
58785;BME280;44557;51.862;19.378;2023-07-31T00:30:01;98643.05;;;19.28;88.47
58785;BME280;44557;51.862;19.378;2023-07-31T00:32:03;98648.75;;;19.35;88.24
58785;BME280;44557;51.862;19.378;2023-07-31T00:34:06;98650.97;;;19.31;88.22
58785;BME280;44557;51.862;19.378;2023-07-31T00:36:07;98648.97;;;19.31;88.37
58785;BME280;44557;51.862;19.378;2023-07-31T00:38:09;98642.77;;;19.29;88.47
58785;BME280;44557;51.862;19.378;2023-07-31T00:40:12;98636.23;;;19.31;88.25
58785;BME280;44557;51.862;19.378;2023-07-31T00:42:15;98638.73;;;19.17;89.03
58785;BME280;44557;51.862;19.378;2023-07-31T00:44:17;98635.48;;;19.26;88.43
58785;BME280;44557;51.862;19.378;2023-07-31T00:46:20;98636.77;;;19.09;89.34
58785;BME280;44557;51.862;19.378;2023-07-31T00:48:23;98641.14;;;19.16;89.01
58785;BME280;44557;51.862;19.378;2023-07-31T00:50:26;98643.77;;;19.11;89.22
58785;BME280;44557;51.862;19.378;2023-07-31T00:52:29;98650.63;;;19.04;89.71
58785;BME280;44557;51.862;19.378;2023-07-31T00:54:31;98655.71;;;19.06;89.47
58785;BME280;44557;51.862;19.378;2023-07-31T00:56:33;98657.37;;;19.08;88.97
58785;BME280;44557;51.862;19.378;2023-07-31T00:58:35;98655.04;;;19.09;88.66
58785;BME280;44557;51.862;19.378;2023-07-31T01:00:38;98655.73;;;19.10;88.39
58785;BME280;44557;51.862;19.378;2023-07-31T01:02:40;98658.13;;;19.11;88.24
58785;BME280;44557;51.862;19.378;2023-07-31T01:04:43;98657.89;;;19.05;87.82
58785;BME280;44557;51.862;19.378;2023-07-31T01:06:56;98657.82;;;19.03;87.05
58785;BME280;44557;51.862;19.378;2023-07-31T01:09:34;98661.43;;;18.90;87.14
58785;BME280;44557;51.862;19.378;2023-07-31T01:11:33;98664.10;;;18.99;86.26
58785;BME280;44557;51.862;19.378;2023-07-31T01:13:36;98663.70;;;19.05;85.52
58785;BME280;44557;51.862;19.378;2023-07-31T01:15:38;98668.36;;;19.09;84.46
58785;BME280;44557;51.862;19.378;2023-07-31T01:17:44;98674.59;;;19.03;84.05
58785;BME280;44557;51.862;19.378;2023-07-31T01:19:47;98676.73;;;19.08;83.63
58785;BME280;44557;51.862;19.378;2023-07-31T01:26:21;98675.57;;;19.00;82.73
58785;BME280;44557;51.862;19.378;2023-07-31T01:28:52;98672.40;;;18.93;82.72
58785;BME280;44557;51.862;19.378;2023-07-31T01:30:50;98667.89;;;18.91;82.40
58785;BME280;44557;51.862;19.378;2023-07-31T01:32:53;98668.97;;;18.87;82.41
58785;BME280;44557;51.862;19.378;2023-07-31T01:34:58;98670.21;;;18.77;82.96
58785;BME280;44557;51.862;19.378;2023-07-31T01:37:01;98674.83;;;18.84;82.38
58785;BME280;44557;51.862;19.378;2023-07-31T01:39:03;98670.09;;;18.81;81.76
58785;BME280;44557;51.862;19.378;2023-07-31T01:41:05;98670.74;;;18.85;81.70
58785;BME280;44557;51.862;19.378;2023-07-31T01:43:07;98671.73;;;18.83;81.39
58785;BME280;44557;51.862;19.378;2023-07-31T01:45:10;98671.55;;;18.65;82.03
58785;BME280;44557;51.862;19.378;2023-07-31T01:47:13;98674.59;;;18.71;82.07
58785;BME280;44557;51.862;19.378;2023-07-31T01:49:15;98670.25;;;18.80;81.42
58785;BME280;44557;51.862;19.378;2023-07-31T01:51:18;98674.11;;;18.78;81.49
58785;BME280;44557;51.862;19.378;2023-07-31T01:53:20;98671.61;;;18.67;82.15
58785;BME280;44557;51.862;19.378;2023-07-31T01:55:22;98669.67;;;18.68;81.93
58785;BME280;44557;51.862;19.378;2023-07-31T01:57:24;98672.98;;;18.64;81.92
58785;BME280;44557;51.862;19.378;2023-07-31T01:59:26;98672.17;;;18.66;81.76
58785;BME280;44557;51.862;19.378;2023-07-31T02:01:28;98672.11;;;18.71;81.06
58785;BME280;44557;51.862;19.378;2023-07-31T02:03:30;98674.08;;;18.68;80.66
58785;BME280;44557;51.862;19.378;2023-07-31T02:05:32;98677.60;;;18.67;80.65
58785;BME280;44557;51.862;19.378;2023-07-31T02:07:33;98675.92;;;18.79;79.57
58785;BME280;44557;51.862;19.378;2023-07-31T02:09:35;98680.58;;;18.70;79.49
58785;BME280;44557;51.862;19.378;2023-07-31T02:11:37;98674.98;;;18.66;79.41
58785;BME280;44557;51.862;19.378;2023-07-31T02:13:39;98683.14;;;18.75;78.72
58785;BME280;44557;51.862;19.378;2023-07-31T02:15:41;98685.71;;;18.73;78.28
58785;BME280;44557;51.862;19.378;2023-07-31T02:17:43;98688.93;;;18.71;78.10
58785;BME280;44557;51.862;19.378;2023-07-31T02:19:45;98683.27;;;18.58;78.50
58785;BME280;44557;51.862;19.378;2023-07-31T02:21:47;98680.95;;;18.72;78.06
58785;BME280;44557;51.862;19.378;2023-07-31T02:23:48;98681.40;;;18.87;76.96
58785;BME280;44557;51.862;19.378;2023-07-31T02:25:51;98682.92;;;18.80;77.08
58785;BME280;44557;51.862;19.378;2023-07-31T02:27:53;98681.52;;;18.65;77.61
58785;BME280;44557;51.862;19.378;2023-07-31T02:29:55;98679.00;;;18.69;77.20
58785;BME280;44557;51.862;19.378;2023-07-31T02:31:57;98679.70;;;18.76;76.66
58785;BME280;44557;51.862;19.378;2023-07-31T02:33:59;98684.14;;;18.78;76.46
58785;BME280;44557;51.862;19.378;2023-07-31T02:36:01;98680.98;;;18.69;77.21
58785;BME280;44557;51.862;19.378;2023-07-31T02:38:03;98680.98;;;18.70;76.84
58785;BME280;44557;51.862;19.378;2023-07-31T02:40:05;98682.00;;;18.58;77.31
58785;BME280;44557;51.862;19.378;2023-07-31T02:42:07;98679.64;;;18.55;77.52
58785;BME280;44557;51.862;19.378;2023-07-31T02:44:09;98682.45;;;18.46;77.91
58785;BME280;44557;51.862;19.378;2023-07-31T02:46:12;98679.04;;;18.53;78.01
58785;BME280;44557;51.862;19.378;2023-07-31T02:48:14;98674.48;;;18.54;77.98
58785;BME280;44557;51.862;19.378;2023-07-31T02:50:16;98678.46;;;18.53;78.14
58785;BME280;44557;51.862;19.378;2023-07-31T02:52:18;98684.16;;;18.42;78.91
58785;BME280;44557;51.862;19.378;2023-07-31T02:54:20;98685.17;;;18.44;79.18
58785;BME280;44557;51.862;19.378;2023-07-31T02:56:23;98686.99;;;18.47;79.13
58785;BME280;44557;51.862;19.378;2023-07-31T02:58:25;98686.70;;;18.42;79.53
58785;BME280;44557;51.862;19.378;2023-07-31T03:00:27;98683.65;;;18.45;79.67
58785;BME280;44557;51.862;19.378;2023-07-31T03:02:28;98688.84;;;18.44;79.85
58785;BME280;44557;51.862;19.378;2023-07-31T03:04:30;98689.17;;;18.42;79.91
58785;BME280;44557;51.862;19.378;2023-07-31T03:06:32;98689.15;;;18.35;80.00
58785;BME280;44557;51.862;19.378;2023-07-31T03:08:34;98690.30;;;18.24;80.97
58785;BME280;44557;51.862;19.378;2023-07-31T03:10:36;98690.55;;;18.31;81.46
58785;BME280;44557;51.862;19.378;2023-07-31T03:12:37;98693.71;;;18.42;81.28
58785;BME280;44557;51.862;19.378;2023-07-31T03:14:39;98695.80;;;18.41;81.62
58785;BME280;44557;51.862;19.378;2023-07-31T03:16:41;98700.42;;;18.41;81.89
58785;BME280;44557;51.862;19.378;2023-07-31T03:18:43;98704.73;;;18.39;82.33
58785;BME280;44557;51.862;19.378;2023-07-31T03:20:45;98706.52;;;18.37;83.05
58785;BME280;44557;51.862;19.378;2023-07-31T03:22:48;98705.25;;;18.35;83.90
58785;BME280;44557;51.862;19.378;2023-07-31T03:24:50;98708.02;;;18.30;84.57
58785;BME280;44557;51.862;19.378;2023-07-31T03:26:53;98713.73;;;18.23;85.33
58785;BME280;44557;51.862;19.378;2023-07-31T03:28:55;98713.67;;;18.29;85.19
58785;BME280;44557;51.862;19.378;2023-07-31T03:30:57;98714.23;;;18.37;85.22
58785;BME280;44557;51.862;19.378;2023-07-31T03:32:59;98716.48;;;18.20;86.21
58785;BME280;44557;51.862;19.378;2023-07-31T03:35:01;98720.74;;;18.06;87.64
58785;BME280;44557;51.862;19.378;2023-07-31T03:37:04;98720.85;;;18.11;87.65
58785;BME280;44557;51.862;19.378;2023-07-31T03:39:06;98720.54;;;18.20;87.42
58785;BME280;44557;51.862;19.378;2023-07-31T03:41:08;98717.59;;;18.12;87.92
58785;BME280;44557;51.862;19.378;2023-07-31T03:43:14;98721.30;;;18.23;87.75
58785;BME280;44557;51.862;19.378;2023-07-31T03:45:17;98721.64;;;18.21;87.83
58785;BME280;44557;51.862;19.378;2023-07-31T03:47:18;98724.65;;;18.14;88.22
58785;BME280;44557;51.862;19.378;2023-07-31T03:49:20;98727.11;;;18.15;88.43
58785;BME280;44557;51.862;19.378;2023-07-31T03:51:22;98731.40;;;18.25;88.03
58785;BME280;44557;51.862;19.378;2023-07-31T03:53:25;98731.36;;;18.20;88.54
58785;BME280;44557;51.862;19.378;2023-07-31T03:55:27;98730.41;;;18.11;88.50
58785;BME280;44557;51.862;19.378;2023-07-31T03:57:30;98728.13;;;18.09;88.62
58785;BME280;44557;51.862;19.378;2023-07-31T03:59:34;98730.42;;;18.02;89.24
58785;BME280;44557;51.862;19.378;2023-07-31T04:01:36;98731.26;;;18.06;88.79
58785;BME280;44557;51.862;19.378;2023-07-31T04:03:39;98732.76;;;18.07;88.39
58785;BME280;44557;51.862;19.378;2023-07-31T04:05:42;98732.27;;;18.17;87.74
58785;BME280;44557;51.862;19.378;2023-07-31T04:07:44;98733.16;;;18.15;87.51
58785;BME280;44557;51.862;19.378;2023-07-31T04:09:47;98734.31;;;18.20;87.38
58785;BME280;44557;51.862;19.378;2023-07-31T04:11:49;98735.40;;;18.23;87.39
58785;BME280;44557;51.862;19.378;2023-07-31T04:13:50;98737.16;;;18.22;87.18
58785;BME280;44557;51.862;19.378;2023-07-31T04:15:52;98734.17;;;18.27;87.27
58785;BME280;44557;51.862;19.378;2023-07-31T04:17:55;98734.78;;;18.22;87.46
58785;BME280;44557;51.862;19.378;2023-07-31T04:19:57;98735.70;;;18.15;87.88
58785;BME280;44557;51.862;19.378;2023-07-31T04:22:00;98736.09;;;18.26;87.22
58785;BME280;44557;51.862;19.378;2023-07-31T04:24:01;98732.20;;;18.33;86.96
58785;BME280;44557;51.862;19.378;2023-07-31T04:26:03;98734.48;;;18.28;86.84
58785;BME280;44557;51.862;19.378;2023-07-31T04:28:06;98731.13;;;18.29;86.74
58785;BME280;44557;51.862;19.378;2023-07-31T04:30:12;98732.89;;;18.28;86.54
58785;BME280;44557;51.862;19.378;2023-07-31T04:32:14;98737.09;;;18.38;86.72
58785;BME280;44557;51.862;19.378;2023-07-31T04:34:18;98734.11;;;18.33;86.30
58785;BME280;44557;51.862;19.378;2023-07-31T04:36:20;98736.11;;;18.24;86.42
58785;BME280;44557;51.862;19.378;2023-07-31T04:38:22;98738.23;;;18.20;86.81
58785;BME280;44557;51.862;19.378;2023-07-31T04:40:24;98741.48;;;18.20;86.84
58785;BME280;44557;51.862;19.378;2023-07-31T04:42:27;98741.65;;;18.37;86.23
58785;BME280;44557;51.862;19.378;2023-07-31T04:44:30;98743.91;;;18.44;85.90
58785;BME280;44557;51.862;19.378;2023-07-31T04:46:32;98743.98;;;18.34;86.09
58785;BME280;44557;51.862;19.378;2023-07-31T04:48:34;98745.55;;;18.28;86.29
58785;BME280;44557;51.862;19.378;2023-07-31T04:50:35;98746.85;;;18.35;85.71
58785;BME280;44557;51.862;19.378;2023-07-31T04:52:37;98742.40;;;18.25;85.77
58785;BME280;44557;51.862;19.378;2023-07-31T04:54:39;98743.63;;;18.48;85.15
58785;BME280;44557;51.862;19.378;2023-07-31T04:56:41;98742.72;;;18.43;84.85
58785;BME280;44557;51.862;19.378;2023-07-31T04:58:44;98751.82;;;18.30;84.40
58785;BME280;44557;51.862;19.378;2023-07-31T05:00:46;98754.64;;;18.37;84.25
58785;BME280;44557;51.862;19.378;2023-07-31T05:02:48;98755.84;;;18.45;84.26
58785;BME280;44557;51.862;19.378;2023-07-31T05:04:50;98758.29;;;18.38;83.99
58785;BME280;44557;51.862;19.378;2023-07-31T05:06:52;98757.36;;;18.46;83.95
58785;BME280;44557;51.862;19.378;2023-07-31T05:08:53;98751.73;;;18.42;83.98
58785;BME280;44557;51.862;19.378;2023-07-31T05:10:56;98754.05;;;18.39;83.82
58785;BME280;44557;51.862;19.378;2023-07-31T05:12:57;98754.39;;;18.56;83.00
58785;BME280;44557;51.862;19.378;2023-07-31T05:14:59;98755.70;;;18.62;83.02
58785;BME280;44557;51.862;19.378;2023-07-31T05:17:01;98758.27;;;18.51;83.05
58785;BME280;44557;51.862;19.378;2023-07-31T05:19:03;98753.20;;;18.48;82.98
58785;BME280;44557;51.862;19.378;2023-07-31T05:21:04;98751.08;;;18.53;82.86
58785;BME280;44557;51.862;19.378;2023-07-31T05:23:07;98753.95;;;18.44;82.50
58785;BME280;44557;51.862;19.378;2023-07-31T05:25:09;98746.86;;;18.44;82.95
58785;BME280;44557;51.862;19.378;2023-07-31T05:27:12;98743.71;;;18.63;82.65
58785;BME280;44557;51.862;19.378;2023-07-31T05:29:17;98744.04;;;18.70;81.83
58785;BME280;44557;51.862;19.378;2023-07-31T05:31:19;98746.67;;;18.70;81.83
58785;BME280;44557;51.862;19.378;2023-07-31T05:33:22;98746.25;;;18.86;81.44
58785;BME280;44557;51.862;19.378;2023-07-31T05:35:23;98746.73;;;18.94;81.23
58785;BME280;44557;51.862;19.378;2023-07-31T05:37:25;98747.27;;;18.95;80.84
58785;BME280;44557;51.862;19.378;2023-07-31T05:39:27;98748.52;;;19.15;80.38
58785;BME280;44557;51.862;19.378;2023-07-31T05:41:29;98749.33;;;19.09;80.33
58785;BME280;44557;51.862;19.378;2023-07-31T05:43:31;98747.23;;;18.91;81.15
58785;BME280;44557;51.862;19.378;2023-07-31T05:45:32;98745.91;;;18.95;81.07
58785;BME280;44557;51.862;19.378;2023-07-31T05:47:34;98745.84;;;19.20;80.48
58785;BME280;44557;51.862;19.378;2023-07-31T05:49:36;98743.48;;;19.48;79.36
58785;BME280;44557;51.862;19.378;2023-07-31T05:51:39;98744.45;;;19.57;78.52
58785;BME280;44557;51.862;19.378;2023-07-31T05:53:41;98741.22;;;19.60;78.17
58785;BME280;44557;51.862;19.378;2023-07-31T05:55:44;98739.16;;;19.81;77.51
58785;BME280;44557;51.862;19.378;2023-07-31T05:57:45;98745.14;;;19.82;77.36
58785;BME280;44557;51.862;19.378;2023-07-31T05:59:47;98743.47;;;20.11;76.55
58785;BME280;44557;51.862;19.378;2023-07-31T06:01:51;98748.95;;;19.84;75.70
58785;BME280;44557;51.862;19.378;2023-07-31T06:03:53;98751.69;;;20.01;76.07
58785;BME280;44557;51.862;19.378;2023-07-31T06:05:55;98753.41;;;20.03;75.55
58785;BME280;44557;51.862;19.378;2023-07-31T06:07:57;98755.86;;;19.90;76.45
58785;BME280;44557;51.862;19.378;2023-07-31T06:09:59;98757.56;;;20.25;74.97
58785;BME280;44557;51.862;19.378;2023-07-31T06:12:08;98762.00;;;20.31;74.10
58785;BME280;44557;51.862;19.378;2023-07-31T06:14:10;98757.91;;;20.47;74.02
58785;BME280;44557;51.862;19.378;2023-07-31T06:16:12;98762.55;;;20.32;73.87
58785;BME280;44557;51.862;19.378;2023-07-31T06:18:14;98760.98;;;20.10;74.09
58785;BME280;44557;51.862;19.378;2023-07-31T06:20:16;98757.14;;;20.22;73.82
58785;BME280;44557;51.862;19.378;2023-07-31T06:22:19;98761.42;;;20.23;73.91
58785;BME280;44557;51.862;19.378;2023-07-31T06:24:20;98763.89;;;20.39;73.01
58785;BME280;44557;51.862;19.378;2023-07-31T06:26:23;98762.25;;;20.45;73.21
58785;BME280;44557;51.862;19.378;2023-07-31T06:28:30;98761.66;;;20.47;72.62
58785;BME280;44557;51.862;19.378;2023-07-31T06:30:33;98763.45;;;20.40;73.06
58785;BME280;44557;51.862;19.378;2023-07-31T06:32:35;98763.41;;;20.42;72.78
58785;BME280;44557;51.862;19.378;2023-07-31T06:34:37;98763.91;;;20.59;72.07
58785;BME280;44557;51.862;19.378;2023-07-31T06:36:40;98767.13;;;20.40;72.99
58785;BME280;44557;51.862;19.378;2023-07-31T06:38:42;98767.42;;;20.17;73.20
58785;BME280;44557;51.862;19.378;2023-07-31T06:40:44;98763.70;;;20.15;72.98
58785;BME280;44557;51.862;19.378;2023-07-31T06:42:46;98773.90;;;20.32;72.17
58785;BME280;44557;51.862;19.378;2023-07-31T06:44:49;98775.16;;;20.38;71.73
58785;BME280;44557;51.862;19.378;2023-07-31T06:46:51;98775.53;;;20.44;71.24
58785;BME280;44557;51.862;19.378;2023-07-31T06:48:53;98771.75;;;20.41;71.43
58785;BME280;44557;51.862;19.378;2023-07-31T06:50:55;98775.98;;;20.46;71.99
58785;BME280;44557;51.862;19.378;2023-07-31T06:52:57;98781.72;;;20.42;72.05
58785;BME280;44557;51.862;19.378;2023-07-31T06:55:02;98783.13;;;20.66;71.63
58785;BME280;44557;51.862;19.378;2023-07-31T06:57:05;98782.71;;;20.59;72.22
58785;BME280;44557;51.862;19.378;2023-07-31T06:59:07;98779.54;;;20.62;72.18
58785;BME280;44557;51.862;19.378;2023-07-31T07:01:09;98780.15;;;20.68;71.94
58785;BME280;44557;51.862;19.378;2023-07-31T07:03:11;98779.21;;;20.49;72.58
58785;BME280;44557;51.862;19.378;2023-07-31T07:05:19;98785.04;;;20.40;72.37
58785;BME280;44557;51.862;19.378;2023-07-31T07:07:21;98786.33;;;20.30;72.63
58785;BME280;44557;51.862;19.378;2023-07-31T07:09:24;98786.64;;;20.49;71.90
58785;BME280;44557;51.862;19.378;2023-07-31T07:11:26;98785.38;;;20.29;72.26
58785;BME280;44557;51.862;19.378;2023-07-31T07:13:27;98784.52;;;20.38;72.26
58785;BME280;44557;51.862;19.378;2023-07-31T07:15:29;98790.65;;;20.53;71.62
58785;BME280;44557;51.862;19.378;2023-07-31T07:17:31;98783.47;;;20.74;70.88
58785;BME280;44557;51.862;19.378;2023-07-31T07:19:34;98785.90;;;20.89;69.78
58785;BME280;44557;51.862;19.378;2023-07-31T07:21:35;98786.83;;;20.94;67.97
58785;BME280;44557;51.862;19.378;2023-07-31T07:23:37;98784.44;;;20.90;68.70
58785;BME280;44557;51.862;19.378;2023-07-31T07:25:39;98785.48;;;20.79;68.67
58785;BME280;44557;51.862;19.378;2023-07-31T07:27:41;98783.61;;;21.18;67.44
58785;BME280;44557;51.862;19.378;2023-07-31T07:29:43;98784.80;;;21.29;67.30
58785;BME280;44557;51.862;19.378;2023-07-31T07:31:44;98780.54;;;21.46;66.83
58785;BME280;44557;51.862;19.378;2023-07-31T07:33:46;98775.84;;;21.52;65.31
58785;BME280;44557;51.862;19.378;2023-07-31T07:35:49;98779.61;;;21.70;64.67
58785;BME280;44557;51.862;19.378;2023-07-31T07:37:51;98784.61;;;21.51;65.08
58785;BME280;44557;51.862;19.378;2023-07-31T07:39:53;98780.54;;;21.42;63.83
58785;BME280;44557;51.862;19.378;2023-07-31T07:41:55;98783.63;;;21.12;64.15
58785;BME280;44557;51.862;19.378;2023-07-31T07:43:57;98784.98;;;20.91;64.55
58785;BME280;44557;51.862;19.378;2023-07-31T07:46:00;98783.50;;;21.15;63.51
58785;BME280;44557;51.862;19.378;2023-07-31T07:48:02;98781.78;;;20.88;63.06
58785;BME280;44557;51.862;19.378;2023-07-31T07:50:04;98780.83;;;20.95;64.17
58785;BME280;44557;51.862;19.378;2023-07-31T07:52:07;98779.77;;;21.33;63.90
58785;BME280;44557;51.862;19.378;2023-07-31T07:54:09;98780.91;;;21.68;63.09
58785;BME280;44557;51.862;19.378;2023-07-31T07:56:11;98779.94;;;21.87;62.50
58785;BME280;44557;51.862;19.378;2023-07-31T07:58:13;98783.25;;;21.87;62.24
58785;BME280;44557;51.862;19.378;2023-07-31T08:00:16;98783.99;;;21.71;61.38
58785;BME280;44557;51.862;19.378;2023-07-31T08:02:19;98786.00;;;22.02;61.58
58785;BME280;44557;51.862;19.378;2023-07-31T08:04:20;98792.85;;;21.83;60.82
58785;BME280;44557;51.862;19.378;2023-07-31T08:06:22;98793.20;;;21.89;60.19
58785;BME280;44557;51.862;19.378;2023-07-31T08:08:24;98789.89;;;21.57;59.84
58785;BME280;44557;51.862;19.378;2023-07-31T08:10:26;98792.06;;;21.54;60.06
58785;BME280;44557;51.862;19.378;2023-07-31T08:12:29;98787.35;;;21.89;60.07
58785;BME280;44557;51.862;19.378;2023-07-31T08:14:31;98787.30;;;22.18;60.09
58785;BME280;44557;51.862;19.378;2023-07-31T08:16:33;98789.08;;;22.01;60.30
58785;BME280;44557;51.862;19.378;2023-07-31T08:18:36;98790.91;;;22.01;60.11
58785;BME280;44557;51.862;19.378;2023-07-31T08:20:38;98790.25;;;21.81;60.30
58785;BME280;44557;51.862;19.378;2023-07-31T08:22:39;98784.73;;;21.66;59.66
58785;BME280;44557;51.862;19.378;2023-07-31T08:24:42;98785.69;;;21.66;60.05
58785;BME280;44557;51.862;19.378;2023-07-31T08:26:44;98784.27;;;21.70;60.33
58785;BME280;44557;51.862;19.378;2023-07-31T08:28:47;98784.38;;;21.56;60.40
58785;BME280;44557;51.862;19.378;2023-07-31T08:30:49;98786.00;;;21.85;60.29
58785;BME280;44557;51.862;19.378;2023-07-31T08:32:52;98789.88;;;21.98;59.30
58785;BME280;44557;51.862;19.378;2023-07-31T08:34:54;98787.90;;;21.97;57.70
58785;BME280;44557;51.862;19.378;2023-07-31T08:36:57;98785.66;;;21.96;57.61
58785;BME280;44557;51.862;19.378;2023-07-31T08:38:59;98782.74;;;21.87;57.52
58785;BME280;44557;51.862;19.378;2023-07-31T08:41:03;98777.95;;;22.36;56.56
58785;BME280;44557;51.862;19.378;2023-07-31T08:43:09;98780.21;;;22.29;57.64
58785;BME280;44557;51.862;19.378;2023-07-31T08:45:14;98781.20;;;22.38;56.29
58785;BME280;44557;51.862;19.378;2023-07-31T08:47:19;98778.23;;;22.05;56.29
58785;BME280;44557;51.862;19.378;2023-07-31T08:49:22;98782.67;;;21.97;55.98
58785;BME280;44557;51.862;19.378;2023-07-31T08:51:25;98781.23;;;21.77;56.36
58785;BME280;44557;51.862;19.378;2023-07-31T08:53:27;98781.42;;;21.93;56.27
58785;BME280;44557;51.862;19.378;2023-07-31T08:55:30;98779.75;;;22.05;56.78
58785;BME280;44557;51.862;19.378;2023-07-31T08:57:35;98779.23;;;21.87;57.07
58785;BME280;44557;51.862;19.378;2023-07-31T08:59:38;98783.79;;;21.91;57.04
58785;BME280;44557;51.862;19.378;2023-07-31T09:01:43;98778.02;;;21.95;56.91
58785;BME280;44557;51.862;19.378;2023-07-31T09:03:50;98776.84;;;21.99;57.34
58785;BME280;44557;51.862;19.378;2023-07-31T09:05:56;98778.48;;;21.92;58.14
58785;BME280;44557;51.862;19.378;2023-07-31T09:07:58;98773.45;;;22.27;57.50
58785;BME280;44557;51.862;19.378;2023-07-31T09:10:00;98770.26;;;22.10;57.23
58785;BME280;44557;51.862;19.378;2023-07-31T09:12:03;98773.52;;;22.24;57.08
58785;BME280;44557;51.862;19.378;2023-07-31T09:14:06;98769.86;;;22.45;56.98
58785;BME280;44557;51.862;19.378;2023-07-31T09:16:10;98772.12;;;22.45;56.41
58785;BME280;44557;51.862;19.378;2023-07-31T09:18:12;98774.95;;;22.28;56.18
58785;BME280;44557;51.862;19.378;2023-07-31T09:20:20;98776.11;;;22.21;56.22
58785;BME280;44557;51.862;19.378;2023-07-31T09:22:32;98777.96;;;22.06;55.30
58785;BME280;44557;51.862;19.378;2023-07-31T09:24:35;98775.86;;;21.97;56.18
58785;BME280;44557;51.862;19.378;2023-07-31T09:26:37;98775.25;;;22.06;56.37
58785;BME280;44557;51.862;19.378;2023-07-31T09:28:39;98774.92;;;22.10;56.52
58785;BME280;44557;51.862;19.378;2023-07-31T09:30:46;98774.61;;;22.13;54.56
58785;BME280;44557;51.862;19.378;2023-07-31T09:32:50;98773.81;;;22.06;54.37
58785;BME280;44557;51.862;19.378;2023-07-31T09:34:53;98775.77;;;22.28;53.73
58785;BME280;44557;51.862;19.378;2023-07-31T09:36:58;98776.48;;;22.28;53.82
58785;BME280;44557;51.862;19.378;2023-07-31T09:39:02;98773.80;;;22.36;53.61
58785;BME280;44557;51.862;19.378;2023-07-31T09:41:06;98771.30;;;22.58;54.00
58785;BME280;44557;51.862;19.378;2023-07-31T09:43:11;98775.19;;;22.63;54.76
58785;BME280;44557;51.862;19.378;2023-07-31T09:45:14;98778.27;;;22.43;54.07
58785;BME280;44557;51.862;19.378;2023-07-31T09:47:23;98773.69;;;22.33;54.18
58785;BME280;44557;51.862;19.378;2023-07-31T09:49:28;98774.62;;;22.48;54.23
58785;BME280;44557;51.862;19.378;2023-07-31T09:51:31;98770.33;;;22.37;54.27
58785;BME280;44557;51.862;19.378;2023-07-31T09:53:33;98768.95;;;22.62;53.81
58785;BME280;44557;51.862;19.378;2023-07-31T09:55:36;98763.93;;;22.67;52.81
58785;BME280;44557;51.862;19.378;2023-07-31T09:57:42;98765.37;;;22.42;52.85
58785;BME280;44557;51.862;19.378;2023-07-31T09:59:48;98766.08;;;22.49;52.79
58785;BME280;44557;51.862;19.378;2023-07-31T10:01:53;98761.12;;;22.51;52.55
58785;BME280;44557;51.862;19.378;2023-07-31T10:03:58;98758.02;;;22.77;52.70
58785;BME280;44557;51.862;19.378;2023-07-31T10:06:01;98755.58;;;23.11;50.97
58785;BME280;44557;51.862;19.378;2023-07-31T10:08:06;98758.99;;;22.59;50.59
58785;BME280;44557;51.862;19.378;2023-07-31T10:10:08;98754.92;;;22.89;50.43
58785;BME280;44557;51.862;19.378;2023-07-31T10:12:13;98748.71;;;23.01;50.21
58785;BME280;44557;51.862;19.378;2023-07-31T10:14:20;98745.46;;;23.03;50.03
58785;BME280;44557;51.862;19.378;2023-07-31T10:16:23;98744.52;;;23.19;49.86
58785;BME280;44557;51.862;19.378;2023-07-31T10:18:26;98741.20;;;23.22;50.06
58785;BME280;44557;51.862;19.378;2023-07-31T10:20:29;98737.86;;;23.26;50.04
58785;BME280;44557;51.862;19.378;2023-07-31T10:22:32;98737.19;;;23.36;50.14
58785;BME280;44557;51.862;19.378;2023-07-31T10:24:36;98733.25;;;23.44;50.23
58785;BME280;44557;51.862;19.378;2023-07-31T10:26:40;98739.06;;;23.19;49.70
58785;BME280;44557;51.862;19.378;2023-07-31T10:28:44;98733.06;;;22.98;49.41
58785;BME280;44557;51.862;19.378;2023-07-31T10:30:47;98729.65;;;22.94;50.75
58785;BME280;44557;51.862;19.378;2023-07-31T10:32:50;98725.52;;;22.75;50.32
58785;BME280;44557;51.862;19.378;2023-07-31T10:34:53;98721.46;;;22.85;50.52
58785;BME280;44557;51.862;19.378;2023-07-31T10:37:25;98719.08;;;23.13;49.33
58785;BME280;44557;51.862;19.378;2023-07-31T10:39:36;98722.28;;;23.02;49.50
58785;BME280;44557;51.862;19.378;2023-07-31T10:41:40;98719.20;;;22.66;50.28
58785;BME280;44557;51.862;19.378;2023-07-31T10:43:42;98720.80;;;22.57;49.55
58785;BME280;44557;51.862;19.378;2023-07-31T10:45:45;98718.66;;;22.44;50.22
58785;BME280;44557;51.862;19.378;2023-07-31T10:47:49;98715.61;;;22.71;50.11